Other Surface Observations
Issued by NWS Great Falls, MT

Home | Current Version | Previous Version | Text Only | Print | Product List | Glossary On
Versions: 1 2 3 4 5 6 7 8 9 10 11 12 13 14 15 16 17 18 19 20 21 22 23 24 25 26 27 28 29 30 31 32 33 34 35 36 37 38 39 40 41 42 43 44 45 46 47 48 49 50
000
SXUS55 KTFX 040644
OSOTFX
AREA AWOS OBSERVATIONS
NATIONAL WEATHER SERVICE GREAT FALLS MT
1144 PM MST SAT DEC 03 2016

METAR KPWD 040645Z AUTO 28009KT 4SM M01/M01 A2976 RMK PLENTYWOOD
METAR KPO1 040645Z AUTO 25003KT 10SM M03/M04 A2982 RMK POPLAR
METAR K1S3 040645Z AUTO 26008KT 10SM 02/M07 A2990 RMK FORSYTH
METAR KS71 040645Z AUTO 27003KT 10SM M01/M07 A2984 RMK CHINOOK
METAR K38S 040645Z AUTO 34004KT 10SM M02/M07 A2999 RMK DEER LODGE
METAR K3U3 040645Z AUTO 19007KT 10SM M01/M08 A2998 RMK ANACONDA
METAR K6S5 040645Z AUTO 16011G16KT 10SM 03/M06 A3001 RMK HAMILTON
METAR KS59 040645Z AUTO 00000KT 10SM 02/M01 A2993 RMK LIBBY
METAR K88M 040645Z AUTO 14009KT 10SM 02/M03 A2990 RMK EUREKA



USA.gov is the U.S. government's official web portal to all federal, state and local government web resources and services.